Sacramento, CA

3:36 AM PST on December 28, 2014 (GMT -0800)
Sacramento Executive | Change Station
CLOSE
Current Station
Airport
Location: Sacramento,
Elevation: 26 ft
Nearby Weather Stations

Elev 26 ft 38.51 °N, 121.50 °W | Updated 43 minutes ago

Partly Cloudy
Partly Cloudy
41 °F
Feels Like 39 °F
N
4
Wind Variable Wind from North

Today
High -- | Low -- °F
--% Chance of Precip.
Yesterday
High -- | Low -- °F
Precip. -- in
7:22 AM 4:52 PM
Waxing Crescent, 47% visible
Pressure 30.37 in
Visibility 7.0 miles
Clouds Clear
Windchill 39 °F
Dew Point 38 °F
Humidity 89%
Rainfall 0.00 in
Snow Depth Not available.
UV 0 out of 12
Pollen 4.10 out of 12
Air Quality Not available.
Flu Activity Not available.
METAR KSAC 281053Z AUTO 36003KT 7SM CLR 05/03 A3037 RMK AO2 SLP283 T00500033

More Conditions Fewer Conditions

Pressure 30.37 in
Visibility 7.0 miles
Clouds Clear
Windchill 39 °F
Dew Point 38 °F
Humidity 89%
Rainfall 0.00 in
Snow Depth Not available.
UV 0 out of 12
Pollen 4.10 out of 12
Air Quality Not available.
Flu Activity Not available.
METAR KSAC 281053Z AUTO 36003KT 7SM CLR 05/03 A3037 RMK AO2 SLP283 T00500033

More Conditions Fewer Conditions

10-Day Weather Forecast

Almanac

Astronomy

Dec. 28, 2014 Rise Set
Actual Time
Civil Twilight
Nautical Twilight
Astronomical Twilight
Moon
Length of Visible Light
Length of Day
Tomorrow will be .
, % of the Moon is Illuminated

Today's Extremes

State Highs State Lows

Community

WunderPhotos

Upload Photos

1,781,233 photos uploaded!

WunderBlogs® & News

Nearby

Air Quality

  Air Quality AQ Index Pollutant
Not available.

Snow Depth

Station Depth Elevation

Earthquake Activity

City Distance Mag. Time & Date
Minimum magnitude displayed is 2.5.

Coastal Water Temperatures

Place Temperature

Nearby Weather Stations